Time;durP1;ratioP1;P1;durP2;ratioP2;P2;SDS_P1;SDS_P2;PMS_P1;PMS_P2;Temp;Humidity;BMP_temperature;BMP_pressure;BME280_temperature;BME280_humidity;BME280_pressure;Samples;Min_cycle;Max_cycle;Signal;HPM_P1;HPM_P2
2022/07/21 00:00:16;;;;;;;25.13;13.82;;;;;;;22.38;69.25;99399.09;5189588;28;20483;-70
2022/07/21 00:03:07;;;;;;;19.30;14.07;;;;;;;22.27;68.83;99427.56;5201305;28;20423;-70
2022/07/21 00:05:57;;;;;;;17.92;13.52;;;;;;;22.24;68.50;99421.75;5202230;28;20085;-70
2022/07/21 00:08:46;;;;;;;21.77;13.45;;;;;;;22.35;69.08;99404.94;5202725;28;20148;-70
2022/07/21 00:11:38;;;;;;;18.35;14.00;;;;;;;22.32;70.71;99391.84;5201137;28;20513;-70
2022/07/21 00:14:28;;;;;;;20.90;14.27;;;;;;;22.28;70.52;99380.63;5201027;28;20049;-70
2022/07/21 00:17:19;;;;;;;21.05;13.95;;;;;;;22.27;70.32;99367.31;5201866;28;20156;-70
2022/07/21 00:20:09;;;;;;;16.98;13.13;;;;;;;22.21;70.82;99378.97;5186507;28;20051;-70
2022/07/21 00:23:00;;;;;;;17.63;13.05;;;;;;;22.21;69.42;99374.38;5201559;28;20080;-70
2022/07/21 00:25:50;;;;;;;22.98;13.57;;;;;;;22.26;69.89;99379.19;5201610;28;20111;-70
2022/07/21 00:28:41;;;;;;;21.58;14.38;;;;;;;22.11;70.08;99376.66;5202299;28;20522;-70
2022/07/21 00:31:31;;;;;;;23.05;13.05;;;;;;;22.11;70.04;99389.34;5201580;28;20050;-70
2022/07/21 00:34:21;;;;;;;19.42;13.70;;;;;;;22.05;70.15;99386.44;5202613;28;20415;-71
2022/07/21 00:37:11;;;;;;;20.92;14.35;;;;;;;22.24;70.74;99387.47;5202414;28;20129;-70
2022/07/21 00:40:04;;;;;;;22.65;15.15;;;;;;;22.14;71.19;99397.03;5202361;28;20064;-70
2022/07/21 00:42:54;;;;;;;21.10;14.88;;;;;;;21.97;71.80;99393.91;5201628;28;20049;-70
2022/07/21 00:45:45;;;;;;;19.27;14.70;;;;;;;22.04;70.81;99419.88;5202153;28;20097;-70
2022/07/21 00:48:35;;;;;;;19.40;14.70;;;;;;;22.00;70.61;99397.03;5202128;28;20057;-70
2022/07/21 00:51:26;;;;;;;18.83;14.10;;;;;;;22.13;70.22;99400.78;5214383;28;20115;-70
2022/07/21 00:54:18;;;;;;;24.60;15.30;;;;;;;22.24;70.15;99416.38;5202281;28;20083;-70
2022/07/21 00:57:10;;;;;;;24.73;15.85;;;;;;;22.24;69.59;99403.69;5202023;28;20056;-70
2022/07/21 01:00:00;;;;;;;25.80;15.63;;;;;;;22.26;69.89;99390.81;5201799;28;20180;-70
2022/07/21 01:02:51;;;;;;;20.48;15.55;;;;;;;22.23;69.99;99377.72;5200808;28;20072;-70
2022/07/21 01:05:41;;;;;;;18.02;14.25;;;;;;;22.36;69.42;99386.84;5201960;28;20530;-70
2022/07/21 01:08:31;;;;;;;21.63;15.43;;;;;;;22.34;69.93;99389.75;5201916;28;20053;-70
2022/07/21 01:11:24;;;;;;;22.92;15.38;;;;;;;22.35;69.04;99398.69;5193834;28;20136;-70
2022/07/21 01:14:14;;;;;;;21.25;15.40;;;;;;;22.30;68.72;99402.03;5201968;28;20545;-71
2022/07/21 01:17:05;;;;;;;20.42;15.40;;;;;;;22.30;69.70;99406.59;5202065;28;20423;-71
2022/07/21 01:19:55;;;;;;;20.27;14.68;;;;;;;22.36;68.71;99393.09;5202004;28;20049;-71
2022/07/21 01:22:49;;;;;;;21.40;15.15;;;;;;;22.40;69.70;99397.00;5201403;28;20163;-70
2022/07/21 01:25:39;;;;;;;24.80;15.25;;;;;;;22.40;69.36;99413.22;5202134;28;20126;-70
2022/07/21 01:28:29;;;;;;;25.13;16.58;;;;;;;22.45;70.19;99416.13;5188890;28;20064;-70
2022/07/21 01:31:19;;;;;;;19.65;15.27;;;;;;;22.46;69.55;99408.88;5205003;28;20061;-70
2022/07/21 01:34:10;;;;;;;24.60;15.20;;;;;;;22.40;68.98;99405.13;5205182;28;20103;-70
2022/07/21 01:37:01;;;;;;;20.85;14.95;;;;;;;22.56;69.07;99408.44;5205331;28;20187;-70
2022/07/21 01:43:00;;;;;;;25.55;15.65;;;;;;;22.35;69.61;99404.94;5204911;28;20636;-70
2022/07/21 01:45:50;;;;;;;22.98;15.52;;;;;;;22.39;69.16;99408.88;5221388;28;20071;-70
2022/07/21 01:48:44;;;;;;;21.45;14.32;;;;;;;22.32;68.25;99415.31;5191608;28;20418;-70
2022/07/21 01:51:35;;;;;;;;;;;;;;;22.27;68.13;99421.34;5205175;28;20056;-70
2022/07/21 01:54:26;;;;;;;21.40;15.30;;;;;;;22.15;70.20;99412.16;5204039;28;20313;-70
2022/07/21 01:57:16;;;;;;;23.90;15.70;;;;;;;22.17;70.03;99416.38;5204979;28;20511;-70
2022/07/21 02:00:07;;;;;;;22.30;14.88;;;;;;;22.23;69.20;99420.94;5204551;28;20411;-70
2022/07/21 02:02:57;;;;;;;27.45;15.68;;;;;;;22.28;69.86;99431.97;5192232;28;20068;-70
2022/07/21 02:05:48;;;;;;;21.50;15.00;;;;;;;22.43;69.57;99444.41;5205073;28;20063;-70
2022/07/21 02:08:38;;;;;;;25.20;15.52;;;;;;;22.51;68.97;99463.91;5218243;28;20081;-70
2022/07/21 02:11:29;;;;;;;21.15;15.07;;;;;;;22.41;68.97;99451.88;5217295;28;20080;-70
2022/07/21 02:14:19;;;;;;;27.38;15.20;;;;;;;22.32;68.98;99472.91;5204672;28;20443;-70
2022/07/21 02:17:10;;;;;;;22.98;15.38;;;;;;;22.28;70.46;99471.63;5204386;28;20613;-70
2022/07/21 02:20:00;;;;;;;26.58;15.60;;;;;;;22.35;69.80;99456.28;5204302;28;20049;-71
2022/07/21 02:22:51;;;;;;;20.70;15.43;;;;;;;22.44;69.91;99470.38;5203255;28;20408;-70
2022/07/21 02:25:41;;;;;;;23.27;16.17;;;;;;;22.39;70.42;99448.56;5205120;28;20100;-70
2022/07/21 02:28:31;;;;;;;22.55;16.17;;;;;;;22.38;69.35;99447.72;5204204;28;20522;-70
2022/07/21 02:31:22;;;;;;;24.65;15.95;;;;;;;22.34;69.79;99451.06;5194312;28;20111;-70
2022/07/21 02:34:11;;;;;;;24.38;17.42;;;;;;;22.37;70.89;99454.16;5204305;28;20053;-70
2022/07/21 02:37:02;;;;;;;26.35;16.80;;;;;;;22.42;70.24;99457.09;5204288;28;20053;-70
2022/07/21 02:39:52;;;;;;;22.20;16.77;;;;;;;22.36;70.62;99449.00;5203857;28;20538;-70
2022/07/21 02:42:42;;;;;;;25.27;17.13;;;;;;;22.47;70.43;99443.75;5203755;28;20068;-70
2022/07/21 02:45:33;;;;;;;26.30;17.50;;;;;;;22.36;70.74;99455.22;5203568;28;20419;-70
2022/07/21 02:48:24;;;;;;;26.13;16.33;;;;;;;22.27;70.68;99457.28;5203819;28;20049;-70
2022/07/21 02:51:14;;;;;;;28.60;17.73;;;;;;;22.35;70.84;99441.91;5203360;28;20053;-70
2022/07/21 02:54:05;;;;;;;22.55;17.35;;;;;;;22.43;70.24;99447.94;5204003;28;20099;-70
2022/07/21 02:56:55;;;;;;;25.98;17.90;;;;;;;22.34;71.40;99449.19;5189940;28;20056;-70
2022/07/21 02:59:46;;;;;;;26.38;17.92;;;;;;;22.41;70.74;99450.00;5203286;28;20195;-70
2022/07/21 03:02:36;;;;;;;28.42;18.70;;;;;;;22.36;70.82;99451.69;5202232;28;20606;-70
2022/07/21 03:05:26;;;;;;;27.88;18.45;;;;;;;22.28;72.07;99458.97;5216568;28;20060;-70
2022/07/21 03:08:17;;;;;;;25.73;18.73;;;;;;;22.25;71.38;99475.59;5203270;28;20049;-70
2022/07/21 03:11:08;;;;;;;29.48;18.60;;;;;;;22.20;71.20;99469.16;5203426;28;20046;-70
2022/07/21 03:13:59;;;;;;;28.35;17.83;;;;;;;22.24;71.18;99481.19;5203365;28;20063;-70
2022/07/21 03:16:50;;;;;;;29.20;16.95;;;;;;;22.25;70.27;99477.44;5201499;28;20056;-70
2022/07/21 03:19:40;;;;;;;28.38;19.23;;;;;;;22.36;71.09;99484.13;5203410;28;20056;-70
2022/07/21 03:22:30;;;;;;;29.25;18.95;;;;;;;22.25;71.67;99490.94;5199914;28;20054;-70
2022/07/21 03:25:21;;;;;;;28.98;17.85;;;;;;;22.31;70.88;99483.88;5203165;28;20076;-70
2022/07/21 03:28:12;;;;;;;27.98;19.23;;;;;;;22.33;71.37;99485.34;5202918;28;20056;-70
2022/07/21 03:31:02;;;;;;;30.15;19.17;;;;;;;22.38;71.26;99488.25;5202595;28;20060;-70
2022/07/21 03:33:51;;;;;;;30.75;18.98;;;;;;;22.23;71.52;99493.03;5202840;28;20673;-70
2022/07/21 03:36:42;;;;;;;30.73;20.17;;;;;;;22.29;72.21;99497.63;5202947;28;20068;-70
2022/07/21 03:39:32;;;;;;;25.08;20.15;;;;;;;22.41;71.35;99492.41;5202953;28;20045;-70
2022/07/21 03:42:22;;;;;;;30.13;19.75;;;;;;;22.30;71.88;99493.88;5188597;28;20060;-70
2022/07/21 03:45:12;;;;;;;26.52;19.00;;;;;;;22.31;71.22;99498.22;5194826;28;20045;-70
2022/07/21 03:48:05;;;;;;;27.05;19.33;;;;;;;22.21;71.72;99493.22;5196400;28;20499;-69
2022/07/21 03:50:55;;;;;;;26.80;18.80;;;;;;;22.28;71.32;99514.84;5196737;28;20049;-70
2022/07/21 03:53:45;;;;;;;28.63;18.55;;;;;;;22.29;71.04;99511.13;5196946;28;20061;-70
2022/07/21 03:56:36;;;;;;;25.30;17.95;;;;;;;22.34;70.41;99505.09;5182471;28;20093;-70
2022/07/21 03:59:26;;;;;;;27.30;19.17;;;;;;;22.36;69.76;99503.03;5192453;28;20418;-70
2022/07/21 04:02:16;;;;;;;24.55;18.13;;;;;;;22.43;70.16;99520.06;5201831;28;20080;-70
2022/07/21 04:05:06;;;;;;;27.45;18.98;;;;;;;22.49;70.26;99519.22;5202834;28;20080;-70
2022/07/21 04:07:56;;;;;;;29.23;18.75;;;;;;;22.44;70.44;99510.91;5202893;28;20103;-69
2022/07/21 04:10:46;;;;;;;24.45;18.33;;;;;;;22.28;70.13;99488.69;5198341;28;20098;-72
2022/07/21 04:13:36;;;;;;;27.67;19.63;;;;;;;22.60;70.83;99504.25;5192713;28;20053;-72
2022/07/21 04:16:27;;;;;;;27.23;17.95;;;;;;;22.46;70.77;99522.34;5202367;28;20050;-70
2022/07/21 04:19:18;;;;;;;25.05;17.77;;;;;;;22.48;70.83;99510.31;5202331;28;20041;-69
2022/07/21 04:22:08;;;;;;;27.58;18.38;;;;;;;22.62;71.21;99526.50;5201947;28;20415;-67
2022/07/21 04:24:59;;;;;;;24.08;15.48;;;;;;;22.58;69.24;99514.44;5193356;28;20050;-68
2022/07/21 04:27:50;;;;;;;25.05;15.40;;;;;;;22.49;69.79;99511.13;5190303;28;20053;-68
2022/07/21 04:30:41;;;;;;;21.33;14.50;;;;;;;22.39;69.28;99519.66;5194433;28;20068;-68
2022/07/21 04:33:31;;;;;;;22.73;15.10;;;;;;;22.31;69.78;99516.31;5197818;28;20063;-69
2022/07/21 04:36:26;;;;;;;18.27;14.10;;;;;;;22.45;69.38;99529.63;5198188;28;20053;-70
2022/07/21 04:39:16;;;;;;;21.20;15.60;;;;;;;22.48;69.61;99531.06;5195188;28;20709;-69
2022/07/21 04:42:07;;;;;;;20.80;14.82;;;;;;;22.37;69.09;99516.31;5197270;28;20056;-69
2022/07/21 04:44:57;;;;;;;23.52;15.05;;;;;;;22.32;70.00;99520.66;5196902;28;20538;-69
2022/07/21 04:47:52;;;;;;;21.40;14.93;;;;;;;22.32;69.39;99528.75;5189048;28;20520;-68
2022/07/21 04:50:43;;;;;;;19.08;14.07;;;;;;;22.49;68.87;99533.56;5201785;28;20064;-72
2022/07/21 04:53:33;;;;;;;22.85;15.20;;;;;;;21.96;71.28;99548.84;5202367;28;20060;-72
2022/07/21 04:56:23;;;;;;;22.83;15.60;;;;;;;22.17;69.69;99542.47;5202268;28;20133;-69
2022/07/21 04:59:13;;;;;;;21.05;15.30;;;;;;;22.03;70.87;99541.59;5195725;28;20468;-70
2022/07/21 05:02:04;;;;;;;22.80;15.95;;;;;;;22.13;70.08;99541.19;5198227;28;20538;-70
2022/07/21 05:04:54;;;;;;;21.88;15.27;;;;;;;22.08;69.78;99525.59;5199126;28;20077;-70
2022/07/21 05:07:45;;;;;;;20.80;14.82;;;;;;;22.22;69.14;99532.72;5199390;28;20095;-70
2022/07/21 05:10:35;;;;;;;21.17;15.15;;;;;;;22.26;69.36;99541.25;5199065;28;20070;-70
2022/07/21 05:13:25;;;;;;;25.50;16.20;;;;;;;22.11;71.25;99545.97;5197628;28;20077;-70
2022/07/21 05:16:16;;;;;;;23.23;15.95;;;;;;;22.17;69.94;99545.19;5201302;28;20052;-71
2022/07/21 05:19:06;;;;;;;21.95;15.38;;;;;;;22.26;70.57;99542.06;5205214;28;20084;-71
2022/07/21 05:21:56;;;;;;;22.10;15.82;;;;;;;22.30;70.78;99545.19;5205033;28;20061;-71
2022/07/21 05:24:47;;;;;;;23.52;15.63;;;;;;;22.45;69.61;99544.97;5186957;28;20140;-72
2022/07/21 05:27:37;;;;;;;20.55;15.75;;;;;;;22.35;69.77;99545.44;5183235;28;20134;-71
2022/07/21 05:30:27;;;;;;;23.98;16.10;;;;;;;22.45;69.28;99543.13;5202825;28;20644;-73
2022/07/21 05:33:18;;;;;;;22.15;15.70;;;;;;;22.61;69.45;99544.56;5216042;28;20435;-69
2022/07/21 05:36:08;;;;;;;22.75;15.70;;;;;;;22.69;68.63;99538.97;5201865;28;20071;-73
2022/07/21 05:38:58;;;;;;;20.98;15.57;;;;;;;22.74;69.32;99543.72;5196134;28;20044;-72
2022/07/21 05:41:49;;;;;;;27.38;16.30;;;;;;;22.93;68.03;99545.63;5182600;28;20174;-71
2022/07/21 05:44:39;;;;;;;24.48;15.93;;;;;;;23.12;67.86;99543.09;5182779;28;20601;-71
2022/07/21 05:47:31;;;;;;;24.60;15.93;;;;;;;23.21;68.55;99541.81;5202339;28;20064;-71
2022/07/21 05:50:21;;;;;;;25.98;15.93;;;;;;;23.22;68.25;99551.59;5186361;28;20177;-70
2022/07/21 05:53:11;;;;;;;24.25;16.05;;;;;;;22.96;68.65;99558.72;5193851;28;20053;-69
2022/07/21 05:56:01;;;;;;;21.17;15.98;;;;;;;23.03;67.89;99563.28;5190102;28;20232;-69
2022/07/21 05:58:51;;;;;;;20.88;14.98;;;;;;;23.28;68.42;99569.69;5190466;28;20130;-73
2022/07/21 06:01:42;;;;;;;22.40;15.50;;;;;;;23.27;67.54;99573.41;5191825;28;20186;-72
2022/07/21 06:04:32;;;;;;;20.83;15.10;;;;;;;23.12;67.53;99567.44;5193470;28;20053;-70
2022/07/21 06:07:23;;;;;;;20.55;14.65;;;;;;;23.39;67.00;99585.25;5189300;28;20430;-69
2022/07/21 06:10:14;;;;;;;22.85;14.43;;;;;;;23.41;67.33;99590.44;5188306;28;20073;-72
2022/07/21 06:13:06;;;;;;;23.10;15.23;;;;;;;23.40;66.12;99586.91;5184764;28;20431;-69
2022/07/21 06:15:56;;;;;;;30.75;15.10;;;;;;;23.34;66.88;99585.06;5191789;28;20053;-72
2022/07/21 06:18:46;;;;;;;21.05;14.60;;;;;;;22.95;67.36;99596.81;5190979;28;20088;-71
2022/07/21 06:21:37;;;;;;;22.58;15.60;;;;;;;23.12;66.52;99598.03;5195489;28;20409;-68
2022/07/21 06:24:35;;;;;;;22.60;15.55;;;;;;;23.25;65.10;99596.34;5187395;28;20555;-70
2022/07/21 06:27:26;;;;;;;20.13;14.60;;;;;;;23.32;65.93;99600.69;5183703;28;20490;-70
2022/07/21 06:30:16;;;;;;;28.63;14.98;;;;;;;23.40;66.15;99588.78;5184976;28;20042;-71
2022/07/21 06:33:06;;;;;;;18.65;14.40;;;;;;;23.37;66.01;99587.34;5189160;28;20491;-69
2022/07/21 06:35:57;;;;;;;20.70;14.05;;;;;;;23.61;64.71;99595.81;5188282;28;20131;-69
2022/07/21 06:38:47;;;;;;;17.63;13.82;;;;;;;23.55;65.55;99593.97;5189096;28;20437;-69
2022/07/21 06:41:41;;;;;;;19.90;13.93;;;;;;;23.69;65.67;99584.78;5184022;28;20135;-71
2022/07/21 06:44:35;;;;;;;16.75;12.30;;;;;;;23.67;64.56;99590.38;5192618;28;21331;-69
2022/07/21 06:47:26;;;;;;;19.02;12.65;;;;;;;23.49;63.60;99584.81;5187931;28;20057;-70
2022/07/21 06:50:16;;;;;;;18.73;12.23;;;;;;;23.64;63.30;99581.84;5205574;28;20056;-73
2022/07/21 06:53:07;;;;;;;15.13;11.50;;;;;;;23.64;62.02;99581.84;5209922;28;20056;-69
2022/07/21 06:55:58;;;;;;;17.33;10.88;;;;;;;23.75;61.99;99585.81;5190821;28;20187;-71
2022/07/21 06:58:53;;;;;;;15.38;10.00;;;;;;;23.62;61.28;99586.66;5193451;28;20144;-73
2022/07/21 07:01:43;;;;;;;14.07;10.43;;;;;;;23.93;60.56;99588.63;5191009;28;20842;-70
2022/07/21 07:04:34;;;;;;;13.32;9.55;;;;;;;23.82;61.96;99594.72;5188575;28;20222;-70
2022/07/21 07:07:24;;;;;;;15.80;10.63;;;;;;;24.07;60.85;99600.22;5186940;28;20267;-70
2022/07/21 07:10:15;;;;;;;16.48;10.13;;;;;;;23.61;62.99;99599.34;5185047;28;20645;-72
2022/07/21 07:13:06;;;;;;;15.80;11.43;;;;;;;23.98;62.10;99598.81;5190399;28;20079;-73
2022/07/21 07:16:16;;;;;;;14.75;9.95;;;;;;;26.02;57.30;99610.78;5191866;28;20218;-70
2022/07/21 07:19:07;;;;;;;16.15;8.57;;;;;;;26.07;55.70;99610.94;5189722;28;20542;-72
2022/07/21 07:21:58;;;;;;;11.02;8.77;;;;;;;26.45;53.15;99601.59;5195556;28;20109;-71
2022/07/21 07:24:48;;;;;;;10.88;8.82;;;;;;;27.60;51.44;99608.44;5199072;28;20056;-70
2022/07/21 07:27:38;;;;;;;14.23;7.72;;;;;;;28.30;47.41;99610.13;5185907;28;20065;-70
2022/07/21 07:30:29;;;;;;;10.18;7.57;;;;;;;27.18;49.56;99600.44;5181716;28;20076;-71
2022/07/21 07:33:20;;;;;;;10.80;7.60;;;;;;;27.83;48.80;99600.22;5183501;28;20316;-70
2022/07/21 07:36:12;;;;;;;11.90;7.32;;;;;;;27.61;50.02;99605.47;5184789;28;20508;-71
2022/07/21 07:39:03;;;;;;;9.73;7.38;;;;;;;27.98;48.20;99596.13;5182668;28;20049;-70
2022/07/21 07:41:55;;;;;;;9.80;6.97;;;;;;;27.74;49.79;99593.47;5178161;28;20114;-70
2022/07/21 07:44:46;;;;;;;9.27;6.78;;;;;;;28.74;47.21;99599.44;5180019;28;20513;-71
2022/07/21 07:47:37;;;;;;;10.13;6.60;;;;;;;28.20;48.30;99591.66;5180304;28;20057;-72
2022/07/21 07:50:28;;;;;;;9.52;6.30;;;;;;;29.26;46.30;99590.97;5188672;28;20053;-74
2022/07/21 07:53:18;;;;;;;12.68;6.50;;;;;;;28.94;46.23;99605.25;5192899;28;20061;-71
2022/07/21 07:56:08;;;;;;;8.25;5.95;;;;;;;28.87;45.84;99598.28;5198544;28;21181;-70
2022/07/21 07:58:59;;;;;;;8.85;6.25;;;;;;;28.18;47.25;99592.97;5194433;28;20150;-73
2022/07/21 08:01:49;;;;;;;14.52;6.68;;;;;;;27.95;46.81;99600.19;5189061;28;20079;-70
2022/07/21 08:04:40;;;;;;;8.30;7.13;;;;;;;27.14;48.85;99599.25;5188655;28;20098;-72
2022/07/21 08:07:31;;;;;;;10.98;7.50;;;;;;;26.90;49.45;99614.72;5181503;28;20057;-70
2022/07/21 08:10:21;;;;;;;12.70;7.40;;;;;;;27.58;46.78;99603.25;5182898;28;20061;-70
2022/07/21 08:13:32;;;;;;;9.15;7.13;;;;;;;28.19;48.27;99602.81;5180322;28;20119;-70
2022/07/21 08:16:22;;;;;;;11.00;7.25;;;;;;;29.81;45.76;99579.16;5184403;28;20253;-72
2022/07/21 08:19:12;;;;;;;11.10;7.38;;;;;;;30.48;43.98;99610.78;5183528;28;20108;-73
2022/07/21 08:22:02;;;;;;;8.68;6.80;;;;;;;29.13;44.21;99599.53;5188972;28;20107;-73
2022/07/21 08:25:04;;;;;;;8.23;6.93;;;;;;;29.68;47.30;99606.88;5191171;28;20056;-70
2022/07/21 08:27:54;;;;;;;9.52;7.22;;;;;;;29.14;46.79;99590.25;5198185;28;20514;-71
2022/07/21 08:30:45;;;;;;;9.88;7.00;;;;;;;27.91;46.90;99599.00;5197723;28;20052;-73
2022/07/21 08:33:35;;;;;;;14.38;7.50;;;;;;;27.38;49.16;99597.34;5189848;28;20151;-70
2022/07/21 08:36:25;;;;;;;11.13;7.35;;;;;;;27.39;48.05;99594.38;5185595;28;20053;-70
2022/07/21 08:39:17;;;;;;;13.50;7.68;;;;;;;26.53;49.33;99598.59;5187940;28;20061;-70
2022/07/21 08:42:08;;;;;;;14.57;7.43;;;;;;;27.05;49.67;99606.94;5200567;28;20050;-72
2022/07/21 08:44:58;;;;;;;9.25;7.00;;;;;;;26.51;48.96;99592.53;5184916;28;20056;-70
2022/07/21 08:47:51;;;;;;;11.52;6.55;;;;;;;26.18;49.72;99584.84;5186444;28;21294;-70
2022/07/21 08:50:42;;;;;;;9.80;5.63;;;;;;;26.37;48.33;99583.75;5185878;28;20251;-72
2022/07/21 08:53:32;;;;;;;7.28;5.75;;;;;;;27.70;47.33;99592.31;5187110;28;20076;-74
2022/07/21 08:56:22;;;;;;;11.88;6.78;;;;;;;28.96;46.62;99585.88;5192291;28;20072;-73
2022/07/21 08:59:12;;;;;;;8.05;6.15;;;;;;;30.15;41.83;99587.16;5189669;28;20445;-74
2022/07/21 09:02:03;;;;;;;9.32;6.15;;;;;;;30.42;42.10;99590.75;5195000;28;20179;-74
2022/07/21 09:04:54;;;;;;;11.25;5.90;;;;;;;29.80;43.24;99582.97;5198345;28;20072;-70
2022/07/21 09:08:00;;;;;;;8.60;5.57;;;;;;;28.66;44.03;99588.94;5195321;28;20060;-73
2022/07/21 09:10:51;;;;;;;8.60;6.05;;;;;;;29.95;43.34;99582.31;5190543;28;20057;-70
2022/07/21 09:13:43;;;;;;;10.05;6.07;;;;;;;31.39;40.75;99584.38;5189561;28;20052;-72
2022/07/21 09:16:36;;;;;;;7.32;5.45;;;;;;;32.02;37.89;99576.94;5188937;28;20522;-71
2022/07/21 09:19:33;;;;;;;8.50;6.03;;;;;;;32.87;38.71;99573.75;5186480;28;20056;-72
2022/07/21 09:22:23;;;;;;;6.53;5.72;;;;;;;31.91;38.59;99573.38;5191899;28;20053;-70
2022/07/21 09:25:32;;;;;;;6.78;5.00;;;;;;;33.28;36.79;99579.16;5192501;28;20061;-68
2022/07/21 09:28:25;;;;;;;8.65;5.50;;;;;;;32.80;38.01;99567.72;5189502;28;20061;-68
2022/07/21 09:31:15;;;;;;;6.65;5.07;;;;;;;31.68;40.16;99569.16;5190623;28;20064;-68
2022/07/21 09:34:12;;;;;;;12.85;5.50;;;;;;;30.43;38.92;99540.44;5185558;28;21060;-71
2022/07/21 09:37:06;;;;;;;9.25;5.15;;;;;;;29.98;41.66;99579.06;5198332;28;20053;-73
2022/07/21 09:39:59;;;;;;;5.55;4.60;;;;;;;28.71;41.43;99575.38;5193457;28;20605;-73
2022/07/21 09:42:51;;;;;;;9.30;5.00;;;;;;;28.70;43.48;99574.53;5197471;28;20069;-74
2022/07/21 09:45:43;;;;;;;6.47;4.45;;;;;;;27.91;43.83;99579.94;5192370;28;20093;-74
2022/07/21 09:48:36;;;;;;;7.70;4.80;;;;;;;28.14;43.32;99584.44;5187471;28;20136;-70
2022/07/21 09:51:43;;;;;;;6.88;5.13;;;;;;;27.82;45.95;99575.97;5190574;28;20761;-73
2022/07/21 09:54:34;;;;;;;6.68;4.68;;;;;;;30.06;41.66;99569.56;5189625;28;20057;-74
2022/07/21 09:57:25;;;;;;;10.77;5.15;;;;;;;31.34;38.72;99580.50;5193529;28;20503;-71
2022/07/21 10:00:28;;;;;;;7.30;5.07;;;;;;;31.30;40.30;99579.38;5183008;28;20064;-71
2022/07/21 10:03:18;;;;;;;6.82;5.07;;;;;;;30.12;40.12;99576.75;5190770;28;20049;-71
2022/07/21 10:06:09;;;;;;;8.27;5.38;;;;;;;29.17;40.67;99578.81;5185555;28;20297;-70
2022/07/21 10:09:02;;;;;;;7.90;4.50;;;;;;;29.23;41.86;99565.00;5202033;28;20057;-70
2022/07/21 10:11:53;;;;;;;7.68;5.05;;;;;;;29.25;41.33;99568.31;5187021;28;20053;-74
2022/07/21 10:14:44;;;;;;;5.30;4.47;;;;;;;29.41;40.29;99563.88;5196324;28;20057;-71
2022/07/21 10:17:34;;;;;;;8.90;4.65;;;;;;;29.28;41.30;99566.97;5192911;28;20423;-70
2022/07/21 10:20:34;;;;;;;7.63;5.03;;;;;;;29.47;41.67;99562.03;5195553;28;20055;-71
2022/07/21 10:23:44;;;;;;;6.80;4.85;;;;;;;29.77;40.54;99558.88;5189868;28;20086;-72
2022/07/21 10:26:34;;;;;;;7.45;4.55;;;;;;;30.29;41.92;99560.25;5193925;28;20553;-71
2022/07/21 10:29:47;;;;;;;7.60;5.18;;;;;;;31.47;39.64;99556.47;5193087;28;20064;-71
2022/07/21 10:32:49;;;;;;;5.50;4.63;;;;;;;31.98;38.18;99551.16;5196409;28;20129;-73
2022/07/21 10:35:44;;;;;;;6.03;4.50;;;;;;;31.71;37.43;99541.19;5189138;28;20049;-73
2022/07/21 10:38:36;;;;;;;9.90;4.70;;;;;;;32.64;34.50;99537.50;5182271;28;20354;-70
2022/07/21 10:41:37;;;;;;;6.30;4.00;;;;;;;32.13;35.23;99525.69;5190315;28;20060;-69
2022/07/21 10:44:27;;;;;;;8.27;4.28;;;;;;;32.81;37.08;99531.72;5181262;28;20795;-73
2022/07/21 10:47:25;;;;;;;5.63;4.13;;;;;;;32.77;34.44;99535.31;5194022;28;20852;-71
2022/07/21 10:50:30;;;;;;;5.18;4.47;;;;;;;33.29;33.87;99531.38;5185864;28;20049;-73
2022/07/21 10:53:20;;;;;;;6.05;4.47;;;;;;;32.37;35.99;99523.22;5188576;28;20227;-71
2022/07/21 10:56:27;;;;;;;5.50;4.10;;;;;;;30.67;38.97;99532.66;5189436;28;20053;-73
2022/07/21 10:59:17;;;;;;;6.30;3.92;;;;;;;30.97;35.82;99531.25;5190541;28;20058;-72
2022/07/21 11:02:28;;;;;;;4.22;3.72;;;;;;;30.46;36.98;99517.16;5198541;28;20053;-74
2022/07/21 11:05:18;;;;;;;6.40;3.53;;;;;;;31.34;37.53;99519.41;5189837;28;20079;-73
2022/07/21 11:08:17;;;;;;;4.13;3.35;;;;;;;32.15;37.51;99523.47;5186366;28;20056;-73
2022/07/21 11:11:16;;;;;;;3.97;3.53;;;;;;;32.53;33.84;99522.16;5188679;28;20044;-72
2022/07/21 11:14:12;;;;;;;4.82;4.07;;;;;;;31.38;36.19;99503.25;5189159;28;20048;-70
2022/07/21 11:17:03;;;;;;;6.43;4.85;;;;;;;31.04;36.96;99517.31;5188662;28;20084;-71
2022/07/21 11:19:53;;;;;;;8.18;4.45;;;;;;;31.55;37.24;99503.88;5186150;28;20052;-71
2022/07/21 11:22:52;;;;;;;5.30;3.95;;;;;;;30.71;36.08;99507.50;5194787;28;22008;-70
2022/07/21 11:25:43;;;;;;;4.60;3.80;;;;;;;29.61;38.06;99514.16;5182465;28;20632;-70
2022/07/21 11:28:33;;;;;;;5.50;4.43;;;;;;;29.92;37.90;99503.53;5190242;28;20143;-73
2022/07/21 11:31:24;;;;;;;8.82;4.25;;;;;;;30.77;36.11;99507.31;5193672;28;20080;-75
2022/07/21 11:34:14;;;;;;;5.68;4.18;;;;;;;29.94;36.45;99515.88;5193033;28;20046;-69
2022/07/21 11:37:05;;;;;;;5.88;4.32;;;;;;;30.29;37.37;99502.81;5202291;28;20372;-68
2022/07/21 11:40:18;;;;;;;6.28;4.25;;;;;;;30.54;36.47;99489.31;5189459;28;20465;-70
2022/07/21 11:43:08;;;;;;;5.18;4.50;;;;;;;30.31;37.46;99506.13;5191191;28;20068;-70
2022/07/21 11:45:58;;;;;;;12.48;5.20;;;;;;;30.45;37.57;99506.50;5185294;28;20041;-70
2022/07/21 11:49:06;;;;;;;7.80;4.30;;;;;;;29.42;38.63;99496.41;5188443;28;20592;-69
2022/07/21 11:51:59;;;;;;;6.70;4.93;;;;;;;29.24;37.66;99481.19;5191455;28;20049;-69
2022/07/21 11:54:52;;;;;;;7.78;4.85;;;;;;;28.95;38.58;99499.59;5198809;28;20053;-70
2022/07/21 11:57:44;;;;;;;8.95;4.60;;;;;;;29.36;38.27;99481.03;5202714;28;20135;-69
2022/07/21 12:00:34;;;;;;;6.55;5.03;;;;;;;29.07;38.02;99481.22;5184678;28;20056;-71
2022/07/21 12:03:25;;;;;;;7.05;5.15;;;;;;;29.94;38.27;99490.44;5175022;28;20093;-70
2022/07/21 12:06:15;;;;;;;6.40;5.03;;;;;;;29.94;36.84;99479.50;5172538;28;20528;-70
2022/07/21 12:09:05;;;;;;;11.85;5.55;;;;;;;30.11;38.17;99474.72;5182188;28;20046;-70
2022/07/21 12:11:56;;;;;;;6.47;5.30;;;;;;;31.01;36.70;99482.25;5163405;28;20646;-71
2022/07/21 12:14:49;;;;;;;6.32;4.90;;;;;;;30.74;37.76;99483.16;5181330;28;20089;-69
2022/07/21 12:17:51;;;;;;;7.72;5.10;;;;;;;29.79;38.13;99471.16;5181909;28;20061;-69
2022/07/21 12:20:42;;;;;;;5.80;5.20;;;;;;;29.67;37.86;99480.34;5185160;28;20065;-69
2022/07/21 12:23:32;;;;;;;5.78;5.10;;;;;;;29.43;38.92;99457.88;5175822;28;20648;-70
2022/07/21 12:26:23;;;;;;;5.63;4.75;;;;;;;29.87;38.69;99476.97;5174987;28;20064;-69
2022/07/21 12:29:28;;;;;;;7.32;5.07;;;;;;;29.21;38.64;99470.75;5176671;28;20061;-69
2022/07/21 12:32:45;;;;;;;6.60;5.70;;;;;;;29.06;38.74;99482.31;5173027;28;20107;-71
2022/07/21 12:35:38;;;;;;;10.23;5.25;;;;;;;29.19;38.02;99478.38;5180243;28;20062;-70
2022/07/21 12:38:43;;;;;;;8.35;5.53;;;;;;;30.16;39.56;99476.69;5181454;28;20108;-70
2022/07/21 12:41:44;;;;;;;8.40;5.22;;;;;;;30.65;37.01;99476.53;5166276;28;20069;-71
2022/07/21 12:44:35;;;;;;;9.05;5.22;;;;;;;29.98;36.08;99474.34;5176145;28;20208;-68
2022/07/21 12:47:26;;;;;;;9.05;5.63;;;;;;;29.12;38.33;99480.47;5179131;28;20424;-68
2022/07/21 12:50:16;;;;;;;7.05;5.18;;;;;;;29.04;39.12;99476.28;5173211;28;20056;-67
2022/07/21 12:53:12;;;;;;;6.93;5.30;;;;;;;29.33;38.61;99481.53;5172540;28;20084;-68
2022/07/21 12:56:02;;;;;;;9.20;5.55;;;;;;;29.47;38.35;99486.38;5179080;28;20660;-68
2022/07/21 12:58:54;;;;;;;5.65;4.80;;;;;;;29.48;38.01;99476.25;5187708;28;20053;-69
2022/07/21 13:01:45;;;;;;;6.70;4.90;;;;;;;29.45;36.83;99469.41;5159492;28;20057;-67
2022/07/21 13:04:36;;;;;;;6.07;4.72;;;;;;;29.54;37.56;99474.41;5163352;28;20195;-69
2022/07/21 13:07:26;;;;;;;5.63;5.00;;;;;;;29.34;36.97;99473.09;5161632;28;20103;-68
2022/07/21 13:10:17;;;;;;;7.40;4.97;;;;;;;29.62;37.20;99476.72;5158933;28;20060;-67
2022/07/21 13:13:08;;;;;;;5.65;4.63;;;;;;;29.78;36.34;99473.06;5172044;28;20157;-67
2022/07/21 13:15:58;;;;;;;11.40;4.85;;;;;;;29.40;36.89;99472.06;5160117;28;20435;-67
2022/07/21 13:18:49;;;;;;;6.32;4.72;;;;;;;29.20;38.12;99467.19;5167623;28;20061;-66
2022/07/21 13:21:39;;;;;;;6.70;4.50;;;;;;;29.61;37.38;99473.16;5168209;28;20133;-67